sensor_id;sensor_type;location;lat;lon;timestamp;P1;durP1;ratioP1;P2;durP2;ratioP2
62509;SDS011;48558;48.242;11.654;2023-11-21T00:03:53;6.80;;;1.10;;
62509;SDS011;48558;48.242;11.654;2023-11-21T00:08:07;2.05;;;0.68;;
62509;SDS011;48558;48.242;11.654;2023-11-21T00:12:20;9.85;;;0.68;;
62509;SDS011;48558;48.242;11.654;2023-11-21T00:16:33;1.02;;;0.45;;
62509;SDS011;48558;48.242;11.654;2023-11-21T00:20:46;0.85;;;0.38;;
62509;SDS011;48558;48.242;11.654;2023-11-21T00:24:58;2.22;;;0.65;;
62509;SDS011;48558;48.242;11.654;2023-11-21T00:29:11;0.30;;;0.30;;
62509;SDS011;48558;48.242;11.654;2023-11-21T00:33:23;0.90;;;0.70;;
62509;SDS011;48558;48.242;11.654;2023-11-21T00:37:37;3.00;;;1.00;;
62509;SDS011;48558;48.242;11.654;2023-11-21T00:41:51;0.35;;;0.20;;
62509;SDS011;48558;48.242;11.654;2023-11-21T00:46:05;0.57;;;0.40;;
62509;SDS011;48558;48.242;11.654;2023-11-21T00:50:21;0.40;;;0.40;;
62509;SDS011;48558;48.242;11.654;2023-11-21T00:54:34;1.35;;;0.28;;
62509;SDS011;48558;48.242;11.654;2023-11-21T00:58:46;5.72;;;0.30;;
62509;SDS011;48558;48.242;11.654;2023-11-21T01:03:01;0.50;;;0.50;;
62509;SDS011;48558;48.242;11.654;2023-11-21T01:07:14;0.10;;;0.10;;
62509;SDS011;48558;48.242;11.654;2023-11-21T01:11:27;0.63;;;0.20;;
62509;SDS011;48558;48.242;11.654;2023-11-21T01:15:40;1.85;;;0.38;;
62509;SDS011;48558;48.242;11.654;2023-11-21T01:19:52;0.20;;;0.20;;
62509;SDS011;48558;48.242;11.654;2023-11-21T01:24:05;0.10;;;0.10;;
62509;SDS011;48558;48.242;11.654;2023-11-21T01:28:20;1.77;;;0.47;;
62509;SDS011;48558;48.242;11.654;2023-11-21T01:32:32;0.22;;;0.13;;
62509;SDS011;48558;48.242;11.654;2023-11-21T01:36:46;0.13;;;0.13;;
62509;SDS011;48558;48.242;11.654;2023-11-21T01:40:59;3.97;;;0.43;;
62509;SDS011;48558;48.242;11.654;2023-11-21T01:45:12;0.82;;;0.28;;
62509;SDS011;48558;48.242;11.654;2023-11-21T01:49:26;1.45;;;0.40;;
62509;SDS011;48558;48.242;11.654;2023-11-21T01:53:38;0.30;;;0.30;;
62509;SDS011;48558;48.242;11.654;2023-11-21T01:57:51;0.35;;;0.35;;
62509;SDS011;48558;48.242;11.654;2023-11-21T02:02:04;0.30;;;0.30;;
62509;SDS011;48558;48.242;11.654;2023-11-21T02:06:18;0.55;;;0.40;;
62509;SDS011;48558;48.242;11.654;2023-11-21T02:10:31;0.30;;;0.30;;
62509;SDS011;48558;48.242;11.654;2023-11-21T02:14:44;3.30;;;0.30;;
62509;SDS011;48558;48.242;11.654;2023-11-21T02:18:57;0.75;;;0.40;;
62509;SDS011;48558;48.242;11.654;2023-11-21T02:23:10;0.90;;;0.32;;
62509;SDS011;48558;48.242;11.654;2023-11-21T02:27:23;0.55;;;0.17;;
62509;SDS011;48558;48.242;11.654;2023-11-21T02:31:36;1.45;;;0.35;;
62509;SDS011;48558;48.242;11.654;2023-11-21T02:35:50;0.45;;;0.45;;
62509;SDS011;48558;48.242;11.654;2023-11-21T02:40:08;2.25;;;0.68;;
62509;SDS011;48558;48.242;11.654;2023-11-21T02:44:22;0.35;;;0.30;;
62509;SDS011;48558;48.242;11.654;2023-11-21T02:48:35;0.52;;;0.47;;
62509;SDS011;48558;48.242;11.654;2023-11-21T02:52:48;1.73;;;0.45;;
62509;SDS011;48558;48.242;11.654;2023-11-21T02:57:01;1.35;;;0.30;;
62509;SDS011;48558;48.242;11.654;2023-11-21T03:01:14;1.08;;;0.50;;
62509;SDS011;48558;48.242;11.654;2023-11-21T03:05:27;1.02;;;0.43;;
62509;SDS011;48558;48.242;11.654;2023-11-21T03:09:40;0.82;;;0.40;;
62509;SDS011;48558;48.242;11.654;2023-11-21T03:13:53;1.77;;;0.47;;
62509;SDS011;48558;48.242;11.654;2023-11-21T03:18:06;0.20;;;0.20;;
62509;SDS011;48558;48.242;11.654;2023-11-21T03:22:18;1.52;;;0.77;;
62509;SDS011;48558;48.242;11.654;2023-11-21T03:26:31;0.25;;;0.17;;
62509;SDS011;48558;48.242;11.654;2023-11-21T03:30:44;0.30;;;0.30;;
62509;SDS011;48558;48.242;11.654;2023-11-21T03:34:57;1.73;;;0.38;;
62509;SDS011;48558;48.242;11.654;2023-11-21T03:39:11;0.57;;;0.30;;
62509;SDS011;48558;48.242;11.654;2023-11-21T03:43:23;1.60;;;0.43;;
62509;SDS011;48558;48.242;11.654;2023-11-21T03:47:37;0.80;;;0.17;;
62509;SDS011;48558;48.242;11.654;2023-11-21T03:51:49;0.20;;;0.20;;
62509;SDS011;48558;48.242;11.654;2023-11-21T03:56:02;0.35;;;0.32;;
62509;SDS011;48558;48.242;11.654;2023-11-21T04:00:20;0.28;;;0.28;;
62509;SDS011;48558;48.242;11.654;2023-11-21T04:04:33;1.38;;;0.38;;
62509;SDS011;48558;48.242;11.654;2023-11-21T04:08:46;0.20;;;0.20;;
62509;SDS011;48558;48.242;11.654;2023-11-21T04:12:59;2.08;;;0.55;;
62509;SDS011;48558;48.242;11.654;2023-11-21T04:17:12;0.38;;;0.38;;
62509;SDS011;48558;48.242;11.654;2023-11-21T04:21:25;0.50;;;0.50;;
62509;SDS011;48558;48.242;11.654;2023-11-21T04:25:37;0.95;;;0.47;;
62509;SDS011;48558;48.242;11.654;2023-11-21T04:29:50;0.30;;;0.30;;
62509;SDS011;48558;48.242;11.654;2023-11-21T04:34:02;4.35;;;0.70;;
62509;SDS011;48558;48.242;11.654;2023-11-21T04:38:16;0.22;;;0.22;;
62509;SDS011;48558;48.242;11.654;2023-11-21T04:42:28;1.40;;;0.60;;
62509;SDS011;48558;48.242;11.654;2023-11-21T04:46:41;2.72;;;0.40;;
62509;SDS011;48558;48.242;11.654;2023-11-21T04:50:54;0.15;;;0.15;;
62509;SDS011;48558;48.242;11.654;2023-11-21T04:55:06;0.47;;;0.47;;
62509;SDS011;48558;48.242;11.654;2023-11-21T04:59:22;0.47;;;0.47;;
62509;SDS011;48558;48.242;11.654;2023-11-21T05:03:39;0.25;;;0.25;;
62509;SDS011;48558;48.242;11.654;2023-11-21T05:07:52;0.85;;;0.30;;
62509;SDS011;48558;48.242;11.654;2023-11-21T05:12:05;0.25;;;0.25;;
62509;SDS011;48558;48.242;11.654;2023-11-21T05:16:19;0.98;;;0.52;;
62509;SDS011;48558;48.242;11.654;2023-11-21T05:20:32;0.45;;;0.25;;
62509;SDS011;48558;48.242;11.654;2023-11-21T05:24:45;1.13;;;0.30;;
62509;SDS011;48558;48.242;11.654;2023-11-21T05:29:01;0.32;;;0.32;;
62509;SDS011;48558;48.242;11.654;2023-11-21T05:33:13;0.20;;;0.20;;
62509;SDS011;48558;48.242;11.654;2023-11-21T05:37:26;0.30;;;0.30;;
62509;SDS011;48558;48.242;11.654;2023-11-21T05:41:39;0.35;;;0.32;;
62509;SDS011;48558;48.242;11.654;2023-11-21T05:45:51;2.35;;;0.50;;
62509;SDS011;48558;48.242;11.654;2023-11-21T05:50:04;0.75;;;0.52;;
62509;SDS011;48558;48.242;11.654;2023-11-21T05:54:17;0.65;;;0.47;;
62509;SDS011;48558;48.242;11.654;2023-11-21T05:58:30;0.10;;;0.10;;
62509;SDS011;48558;48.242;11.654;2023-11-21T06:02:43;0.38;;;0.20;;
62509;SDS011;48558;48.242;11.654;2023-11-21T06:06:57;0.30;;;0.30;;
62509;SDS011;48558;48.242;11.654;2023-11-21T06:11:09;0.10;;;0.10;;
62509;SDS011;48558;48.242;11.654;2023-11-21T06:15:23;0.10;;;0.10;;
62509;SDS011;48558;48.242;11.654;2023-11-21T06:19:36;1.85;;;0.30;;
62509;SDS011;48558;48.242;11.654;2023-11-21T06:23:48;0.00;;;0.00;;
62509;SDS011;48558;48.242;11.654;2023-11-21T06:28:04;0.10;;;0.10;;
62509;SDS011;48558;48.242;11.654;2023-11-21T06:32:17;0.20;;;0.20;;
62509;SDS011;48558;48.242;11.654;2023-11-21T06:36:29;2.85;;;0.60;;
62509;SDS011;48558;48.242;11.654;2023-11-21T06:40:42;1.02;;;0.20;;
62509;SDS011;48558;48.242;11.654;2023-11-21T06:44:56;0.10;;;0.10;;
62509;SDS011;48558;48.242;11.654;2023-11-21T06:49:09;0.22;;;0.22;;
62509;SDS011;48558;48.242;11.654;2023-11-21T06:53:22;0.60;;;0.60;;
62509;SDS011;48558;48.242;11.654;2023-11-21T06:57:34;0.20;;;0.20;;
62509;SDS011;48558;48.242;11.654;2023-11-21T07:01:47;0.43;;;0.43;;
62509;SDS011;48558;48.242;11.654;2023-11-21T07:06:00;1.08;;;0.30;;
62509;SDS011;48558;48.242;11.654;2023-11-21T07:10:12;1.27;;;0.20;;
62509;SDS011;48558;48.242;11.654;2023-11-21T07:14:25;0.20;;;0.20;;
62509;SDS011;48558;48.242;11.654;2023-11-21T07:18:38;0.60;;;0.38;;
62509;SDS011;48558;48.242;11.654;2023-11-21T07:22:50;0.10;;;0.10;;
62509;SDS011;48558;48.242;11.654;2023-11-21T07:27:03;0.20;;;0.20;;
62509;SDS011;48558;48.242;11.654;2023-11-21T07:31:16;2.63;;;0.40;;
62509;SDS011;48558;48.242;11.654;2023-11-21T07:35:29;0.22;;;0.22;;
62509;SDS011;48558;48.242;11.654;2023-11-21T07:39:42;0.10;;;0.10;;
62509;SDS011;48558;48.242;11.654;2023-11-21T07:43:55;3.40;;;0.63;;
62509;SDS011;48558;48.242;11.654;2023-11-21T07:48:08;0.47;;;0.45;;
62509;SDS011;48558;48.242;11.654;2023-11-21T07:52:20;0.20;;;0.20;;
62509;SDS011;48558;48.242;11.654;2023-11-21T07:56:33;0.40;;;0.40;;
62509;SDS011;48558;48.242;11.654;2023-11-21T08:00:46;0.20;;;0.20;;
62509;SDS011;48558;48.242;11.654;2023-11-21T08:04:59;1.95;;;0.40;;
62509;SDS011;48558;48.242;11.654;2023-11-21T08:09:12;0.50;;;0.50;;
62509;SDS011;48558;48.242;11.654;2023-11-21T08:13:28;0.28;;;0.28;;
62509;SDS011;48558;48.242;11.654;2023-11-21T08:17:42;0.25;;;0.25;;
62509;SDS011;48558;48.242;11.654;2023-11-21T08:21:55;1.10;;;0.50;;
62509;SDS011;48558;48.242;11.654;2023-11-21T08:26:08;2.78;;;0.50;;
62509;SDS011;48558;48.242;11.654;2023-11-21T08:30:21;0.40;;;0.35;;
62509;SDS011;48558;48.242;11.654;2023-11-21T08:34:36;1.45;;;0.20;;
62509;SDS011;48558;48.242;11.654;2023-11-21T08:38:48;0.20;;;0.20;;
62509;SDS011;48558;48.242;11.654;2023-11-21T08:43:01;0.40;;;0.28;;
62509;SDS011;48558;48.242;11.654;2023-11-21T08:47:16;0.25;;;0.25;;
62509;SDS011;48558;48.242;11.654;2023-11-21T08:51:29;0.90;;;0.38;;
62509;SDS011;48558;48.242;11.654;2023-11-21T08:55:41;1.38;;;0.85;;
62509;SDS011;48558;48.242;11.654;2023-11-21T08:59:56;1.58;;;0.45;;
62509;SDS011;48558;48.242;11.654;2023-11-21T09:04:08;0.20;;;0.20;;
62509;SDS011;48558;48.242;11.654;2023-11-21T09:08:21;1.67;;;0.30;;
62509;SDS011;48558;48.242;11.654;2023-11-21T09:12:34;0.90;;;0.20;;
62509;SDS011;48558;48.242;11.654;2023-11-21T09:16:51;0.35;;;0.30;;
62509;SDS011;48558;48.242;11.654;2023-11-21T09:21:04;1.15;;;0.65;;
62509;SDS011;48558;48.242;11.654;2023-11-21T09:25:17;0.38;;;0.38;;
62509;SDS011;48558;48.242;11.654;2023-11-21T09:29:30;0.35;;;0.35;;
62509;SDS011;48558;48.242;11.654;2023-11-21T09:33:43;2.70;;;0.70;;
62509;SDS011;48558;48.242;11.654;2023-11-21T09:37:56;2.53;;;0.40;;
62509;SDS011;48558;48.242;11.654;2023-11-21T09:42:10;0.73;;;0.50;;
62509;SDS011;48558;48.242;11.654;2023-11-21T09:46:34;1.00;;;1.00;;
62509;SDS011;48558;48.242;11.654;2023-11-21T09:50:48;2.00;;;1.40;;
62509;SDS011;48558;48.242;11.654;2023-11-21T09:55:04;2.33;;;1.88;;
62509;SDS011;48558;48.242;11.654;2023-11-21T09:59:18;1.05;;;0.90;;
62509;SDS011;48558;48.242;11.654;2023-11-21T10:03:30;3.53;;;2.00;;
62509;SDS011;48558;48.242;11.654;2023-11-21T10:07:43;1.40;;;1.10;;
62509;SDS011;48558;48.242;11.654;2023-11-21T10:11:56;1.67;;;1.02;;
62509;SDS011;48558;48.242;11.654;2023-11-21T10:16:14;0.90;;;0.90;;
62509;SDS011;48558;48.242;11.654;2023-11-21T10:20:33;2.35;;;2.15;;
62509;SDS011;48558;48.242;11.654;2023-11-21T10:24:46;1.02;;;1.00;;
62509;SDS011;48558;48.242;11.654;2023-11-21T10:29:04;0.60;;;0.60;;
62509;SDS011;48558;48.242;11.654;2023-11-21T10:33:17;0.40;;;0.40;;
62509;SDS011;48558;48.242;11.654;2023-11-21T10:37:30;0.68;;;0.68;;
62509;SDS011;48558;48.242;11.654;2023-11-21T10:41:43;0.57;;;0.57;;
62509;SDS011;48558;48.242;11.654;2023-11-21T10:45:59;2.53;;;0.63;;
62509;SDS011;48558;48.242;11.654;2023-11-21T10:50:12;0.82;;;0.63;;
62509;SDS011;48558;48.242;11.654;2023-11-21T10:54:25;0.55;;;0.55;;
62509;SDS011;48558;48.242;11.654;2023-11-21T10:58:38;1.13;;;0.90;;
62509;SDS011;48558;48.242;11.654;2023-11-21T11:02:52;0.50;;;0.50;;
62509;SDS011;48558;48.242;11.654;2023-11-21T11:07:10;0.75;;;0.50;;
62509;SDS011;48558;48.242;11.654;2023-11-21T11:11:25;0.30;;;0.30;;
62509;SDS011;48558;48.242;11.654;2023-11-21T11:15:38;0.82;;;0.60;;
62509;SDS011;48558;48.242;11.654;2023-11-21T11:19:51;0.77;;;0.40;;
62509;SDS011;48558;48.242;11.654;2023-11-21T11:24:15;0.20;;;0.20;;
62509;SDS011;48558;48.242;11.654;2023-11-21T11:29:18;0.70;;;0.43;;
62509;SDS011;48558;48.242;11.654;2023-11-21T11:33:45;0.55;;;0.55;;
62509;SDS011;48558;48.242;11.654;2023-11-21T11:38:32;0.77;;;0.77;;
62509;SDS011;48558;48.242;11.654;2023-11-21T11:42:55;0.43;;;0.43;;
62509;SDS011;48558;48.242;11.654;2023-11-21T11:47:24;0.50;;;0.50;;
62509;SDS011;48558;48.242;11.654;2023-11-21T11:51:46;0.32;;;0.32;;
62509;SDS011;48558;48.242;11.654;2023-11-21T11:56:18;0.70;;;0.70;;
62509;SDS011;48558;48.242;11.654;2023-11-21T12:00:42;0.43;;;0.40;;
62509;SDS011;48558;48.242;11.654;2023-11-21T12:04:55;0.40;;;0.40;;
62509;SDS011;48558;48.242;11.654;2023-11-21T12:09:17;1.95;;;1.58;;
62509;SDS011;48558;48.242;11.654;2023-11-21T12:13:31;0.70;;;0.57;;
62509;SDS011;48558;48.242;11.654;2023-11-21T12:17:44;1.10;;;1.00;;
62509;SDS011;48558;48.242;11.654;2023-11-21T12:21:57;1.08;;;0.55;;
62509;SDS011;48558;48.242;11.654;2023-11-21T12:26:11;3.40;;;0.77;;
62509;SDS011;48558;48.242;11.654;2023-11-21T12:30:28;0.70;;;0.50;;
62509;SDS011;48558;48.242;11.654;2023-11-21T12:34:43;1.55;;;0.70;;
62509;SDS011;48558;48.242;11.654;2023-11-21T12:38:56;0.40;;;0.40;;
62509;SDS011;48558;48.242;11.654;2023-11-21T12:43:09;0.55;;;0.55;;
62509;SDS011;48558;48.242;11.654;2023-11-21T12:47:22;0.60;;;0.60;;
62509;SDS011;48558;48.242;11.654;2023-11-21T12:51:34;1.55;;;0.82;;
62509;SDS011;48558;48.242;11.654;2023-11-21T12:55:47;4.70;;;0.50;;
62509;SDS011;48558;48.242;11.654;2023-11-21T13:00:04;0.50;;;0.50;;
62509;SDS011;48558;48.242;11.654;2023-11-21T13:04:34;1.02;;;0.40;;
62509;SDS011;48558;48.242;11.654;2023-11-21T13:08:47;0.30;;;0.28;;
62509;SDS011;48558;48.242;11.654;2023-11-21T13:13:00;0.47;;;0.32;;
62509;SDS011;48558;48.242;11.654;2023-11-21T13:17:17;0.38;;;0.38;;
62509;SDS011;48558;48.242;11.654;2023-11-21T13:21:30;0.28;;;0.28;;
62509;SDS011;48558;48.242;11.654;2023-11-21T13:25:43;0.75;;;0.60;;
62509;SDS011;48558;48.242;11.654;2023-11-21T13:30:13;6.20;;;0.20;;
62509;SDS011;48558;48.242;11.654;2023-11-21T13:34:35;0.22;;;0.22;;
62509;SDS011;48558;48.242;11.654;2023-11-21T13:38:49;0.65;;;0.20;;
62509;SDS011;48558;48.242;11.654;2023-11-21T13:43:04;0.25;;;0.25;;
62509;SDS011;48558;48.242;11.654;2023-11-21T13:47:17;0.40;;;0.40;;
62509;SDS011;48558;48.242;11.654;2023-11-21T13:51:29;0.40;;;0.40;;
62509;SDS011;48558;48.242;11.654;2023-11-21T13:55:57;0.20;;;0.20;;
62509;SDS011;48558;48.242;11.654;2023-11-21T14:00:10;0.45;;;0.45;;
62509;SDS011;48558;48.242;11.654;2023-11-21T14:04:44;0.80;;;0.73;;
62509;SDS011;48558;48.242;11.654;2023-11-21T14:09:12;1.50;;;0.88;;
62509;SDS011;48558;48.242;11.654;2023-11-21T14:13:34;0.45;;;0.45;;
62509;SDS011;48558;48.242;11.654;2023-11-21T14:17:46;0.40;;;0.40;;
62509;SDS011;48558;48.242;11.654;2023-11-21T14:21:59;1.02;;;0.60;;
62509;SDS011;48558;48.242;11.654;2023-11-21T14:26:12;0.80;;;0.80;;
62509;SDS011;48558;48.242;11.654;2023-11-21T14:30:27;0.38;;;0.38;;
62509;SDS011;48558;48.242;11.654;2023-11-21T14:34:40;0.52;;;0.52;;
62509;SDS011;48558;48.242;11.654;2023-11-21T14:38:55;1.75;;;0.70;;
62509;SDS011;48558;48.242;11.654;2023-11-21T14:43:07;0.30;;;0.30;;
62509;SDS011;48558;48.242;11.654;2023-11-21T14:47:20;0.55;;;0.55;;
62509;SDS011;48558;48.242;11.654;2023-11-21T14:51:37;3.22;;;0.60;;
62509;SDS011;48558;48.242;11.654;2023-11-21T14:56:10;0.40;;;0.40;;
62509;SDS011;48558;48.242;11.654;2023-11-21T15:00:23;0.60;;;0.60;;
62509;SDS011;48558;48.242;11.654;2023-11-21T15:04:48;1.95;;;0.40;;
62509;SDS011;48558;48.242;11.654;2023-11-21T15:09:05;4.72;;;0.55;;
62509;SDS011;48558;48.242;11.654;2023-11-21T15:13:20;0.50;;;0.50;;
62509;SDS011;48558;48.242;11.654;2023-11-21T15:17:39;0.75;;;0.52;;
62509;SDS011;48558;48.242;11.654;2023-11-21T15:21:55;0.90;;;0.52;;
62509;SDS011;48558;48.242;11.654;2023-11-21T15:26:08;0.70;;;0.70;;
62509;SDS011;48558;48.242;11.654;2023-11-21T15:30:21;0.20;;;0.20;;
62509;SDS011;48558;48.242;11.654;2023-11-21T15:34:37;0.75;;;0.50;;
62509;SDS011;48558;48.242;11.654;2023-11-21T15:38:51;0.82;;;0.82;;
62509;SDS011;48558;48.242;11.654;2023-11-21T15:43:05;0.85;;;0.85;;
62509;SDS011;48558;48.242;11.654;2023-11-21T15:47:19;2.15;;;1.17;;
62509;SDS011;48558;48.242;11.654;2023-11-21T15:51:31;0.75;;;0.75;;
62509;SDS011;48558;48.242;11.654;2023-11-21T15:55:44;1.33;;;1.25;;
62509;SDS011;48558;48.242;11.654;2023-11-21T15:59:56;2.13;;;1.80;;
62509;SDS011;48558;48.242;11.654;2023-11-21T16:04:10;1.60;;;1.30;;
62509;SDS011;48558;48.242;11.654;2023-11-21T16:08:24;3.67;;;1.50;;
62509;SDS011;48558;48.242;11.654;2023-11-21T16:12:38;0.75;;;0.75;;
62509;SDS011;48558;48.242;11.654;2023-11-21T16:16:53;2.70;;;2.50;;
62509;SDS011;48558;48.242;11.654;2023-11-21T16:21:06;4.15;;;2.72;;
62509;SDS011;48558;48.242;11.654;2023-11-21T16:25:22;0.70;;;0.70;;
62509;SDS011;48558;48.242;11.654;2023-11-21T16:29:35;1.83;;;0.50;;
62509;SDS011;48558;48.242;11.654;2023-11-21T16:33:48;0.88;;;0.75;;
62509;SDS011;48558;48.242;11.654;2023-11-21T16:38:00;4.65;;;1.80;;
62509;SDS011;48558;48.242;11.654;2023-11-21T16:42:13;1.85;;;1.45;;
62509;SDS011;48558;48.242;11.654;2023-11-21T16:46:27;2.55;;;1.15;;
62509;SDS011;48558;48.242;11.654;2023-11-21T16:50:42;1.38;;;1.27;;
62509;SDS011;48558;48.242;11.654;2023-11-21T16:54:56;1.33;;;1.23;;
62509;SDS011;48558;48.242;11.654;2023-11-21T16:59:08;4.90;;;1.60;;
62509;SDS011;48558;48.242;11.654;2023-11-21T17:03:22;1.65;;;1.55;;
62509;SDS011;48558;48.242;11.654;2023-11-21T17:07:35;3.05;;;1.30;;
62509;SDS011;48558;48.242;11.654;2023-11-21T17:11:48;3.83;;;1.27;;
62509;SDS011;48558;48.242;11.654;2023-11-21T17:16:03;1.58;;;1.48;;
62509;SDS011;48558;48.242;11.654;2023-11-21T17:20:15;1.10;;;1.10;;
62509;SDS011;48558;48.242;11.654;2023-11-21T17:24:28;1.45;;;1.35;;
62509;SDS011;48558;48.242;11.654;2023-11-21T17:28:41;1.50;;;1.40;;
62509;SDS011;48558;48.242;11.654;2023-11-21T17:32:55;2.17;;;1.85;;
62509;SDS011;48558;48.242;11.654;2023-11-21T17:37:08;2.15;;;1.83;;
62509;SDS011;48558;48.242;11.654;2023-11-21T17:41:21;2.08;;;1.92;;
62509;SDS011;48558;48.242;11.654;2023-11-21T17:45:34;2.28;;;2.08;;
62509;SDS011;48558;48.242;11.654;2023-11-21T17:49:47;5.10;;;2.10;;
62509;SDS011;48558;48.242;11.654;2023-11-21T17:54:01;3.85;;;3.08;;
62509;SDS011;48558;48.242;11.654;2023-11-21T17:58:13;1.98;;;1.80;;
62509;SDS011;48558;48.242;11.654;2023-11-21T18:02:26;3.00;;;2.58;;
62509;SDS011;48558;48.242;11.654;2023-11-21T18:06:40;2.97;;;2.67;;
62509;SDS011;48558;48.242;11.654;2023-11-21T18:10:54;2.05;;;1.80;;
62509;SDS011;48558;48.242;11.654;2023-11-21T18:15:10;2.10;;;1.80;;
62509;SDS011;48558;48.242;11.654;2023-11-21T18:19:26;2.47;;;2.28;;
62509;SDS011;48558;48.242;11.654;2023-11-21T18:23:38;3.35;;;3.05;;
62509;SDS011;48558;48.242;11.654;2023-11-21T18:27:50;3.70;;;3.40;;
62509;SDS011;48558;48.242;11.654;2023-11-21T18:32:03;2.35;;;2.13;;
62509;SDS011;48558;48.242;11.654;2023-11-21T18:36:21;2.85;;;2.55;;
62509;SDS011;48558;48.242;11.654;2023-11-21T18:40:34;3.70;;;2.53;;
62509;SDS011;48558;48.242;11.654;2023-11-21T18:44:56;3.88;;;3.58;;
62509;SDS011;48558;48.242;11.654;2023-11-21T18:49:20;6.03;;;4.45;;
62509;SDS011;48558;48.242;11.654;2023-11-21T18:53:34;10.40;;;5.38;;
62509;SDS011;48558;48.242;11.654;2023-11-21T18:57:57;5.15;;;4.00;;
62509;SDS011;48558;48.242;11.654;2023-11-21T19:02:19;5.32;;;3.83;;
62509;SDS011;48558;48.242;11.654;2023-11-21T19:06:42;3.72;;;3.38;;
62509;SDS011;48558;48.242;11.654;2023-11-21T19:10:59;4.28;;;3.45;;
62509;SDS011;48558;48.242;11.654;2023-11-21T19:15:21;6.80;;;3.30;;
62509;SDS011;48558;48.242;11.654;2023-11-21T19:19:44;4.47;;;2.65;;
62509;SDS011;48558;48.242;11.654;2023-11-21T19:24:02;5.25;;;3.53;;
62509;SDS011;48558;48.242;11.654;2023-11-21T19:28:25;4.07;;;3.60;;
62509;SDS011;48558;48.242;11.654;2023-11-21T19:32:39;5.13;;;3.63;;
62509;SDS011;48558;48.242;11.654;2023-11-21T19:37:01;4.15;;;3.35;;
62509;SDS011;48558;48.242;11.654;2023-11-21T19:41:25;4.40;;;2.92;;
62509;SDS011;48558;48.242;11.654;2023-11-21T19:45:49;2.63;;;2.42;;
62509;SDS011;48558;48.242;11.654;2023-11-21T19:50:04;3.13;;;2.83;;
62509;SDS011;48558;48.242;11.654;2023-11-21T19:54:31;3.35;;;2.88;;
62509;SDS011;48558;48.242;11.654;2023-11-21T19:58:53;2.38;;;2.17;;
62509;SDS011;48558;48.242;11.654;2023-11-21T20:03:06;2.20;;;2.00;;
62509;SDS011;48558;48.242;11.654;2023-11-21T20:07:19;2.38;;;2.17;;
62509;SDS011;48558;48.242;11.654;2023-11-21T20:11:34;4.75;;;2.45;;
62509;SDS011;48558;48.242;11.654;2023-11-21T20:15:47;2.05;;;1.92;;
62509;SDS011;48558;48.242;11.654;2023-11-21T20:19:59;2.83;;;2.30;;
62509;SDS011;48558;48.242;11.654;2023-11-21T20:24:12;3.03;;;2.65;;
62509;SDS011;48558;48.242;11.654;2023-11-21T20:28:25;2.67;;;2.28;;
62509;SDS011;48558;48.242;11.654;2023-11-21T20:32:39;4.20;;;3.08;;
62509;SDS011;48558;48.242;11.654;2023-11-21T20:36:52;2.78;;;2.58;;
62509;SDS011;48558;48.242;11.654;2023-11-21T20:41:05;2.92;;;2.63;;
62509;SDS011;48558;48.242;11.654;2023-11-21T20:45:19;5.15;;;4.20;;
62509;SDS011;48558;48.242;11.654;2023-11-21T20:49:36;2.95;;;2.72;;
62509;SDS011;48558;48.242;11.654;2023-11-21T20:53:58;4.05;;;3.38;;
62509;SDS011;48558;48.242;11.654;2023-11-21T20:58:10;4.65;;;3.80;;
62509;SDS011;48558;48.242;11.654;2023-11-21T21:02:24;4.25;;;3.85;;
62509;SDS011;48558;48.242;11.654;2023-11-21T21:06:37;4.70;;;3.85;;
62509;SDS011;48558;48.242;11.654;2023-11-21T21:10:50;3.80;;;3.47;;
62509;SDS011;48558;48.242;11.654;2023-11-21T21:15:06;4.03;;;3.03;;
62509;SDS011;48558;48.242;11.654;2023-11-21T21:19:22;3.25;;;3.03;;
62509;SDS011;48558;48.242;11.654;2023-11-21T21:23:39;3.28;;;2.97;;
62509;SDS011;48558;48.242;11.654;2023-11-21T21:27:51;2.40;;;2.20;;
62509;SDS011;48558;48.242;11.654;2023-11-21T21:32:05;3.90;;;3.20;;
62509;SDS011;48558;48.242;11.654;2023-11-21T21:36:19;3.10;;;2.63;;
62509;SDS011;48558;48.242;11.654;2023-11-21T21:40:34;4.63;;;2.80;;
62509;SDS011;48558;48.242;11.654;2023-11-21T21:44:47;3.83;;;3.13;;
62509;SDS011;48558;48.242;11.654;2023-11-21T21:49:00;5.20;;;3.05;;
62509;SDS011;48558;48.242;11.654;2023-11-21T21:53:15;4.00;;;2.08;;
62509;SDS011;48558;48.242;11.654;2023-11-21T21:57:28;8.00;;;3.33;;
62509;SDS011;48558;48.242;11.654;2023-11-21T22:01:44;3.35;;;3.05;;
62509;SDS011;48558;48.242;11.654;2023-11-21T22:05:57;2.75;;;2.55;;
62509;SDS011;48558;48.242;11.654;2023-11-21T22:10:10;3.13;;;2.85;;
62509;SDS011;48558;48.242;11.654;2023-11-21T22:14:22;2.03;;;1.92;;
62509;SDS011;48558;48.242;11.654;2023-11-21T22:18:35;3.90;;;3.40;;
62509;SDS011;48558;48.242;11.654;2023-11-21T22:22:51;7.85;;;3.47;;
62509;SDS011;48558;48.242;11.654;2023-11-21T22:27:04;8.15;;;3.78;;
62509;SDS011;48558;48.242;11.654;2023-11-21T22:31:17;5.68;;;3.00;;
62509;SDS011;48558;48.242;11.654;2023-11-21T22:35:30;2.88;;;2.60;;
62509;SDS011;48558;48.242;11.654;2023-11-21T22:39:44;3.53;;;2.72;;
62509;SDS011;48558;48.242;11.654;2023-11-21T22:43:58;4.47;;;3.90;;
62509;SDS011;48558;48.242;11.654;2023-11-21T22:48:11;6.63;;;3.20;;
62509;SDS011;48558;48.242;11.654;2023-11-21T22:52:24;4.30;;;3.45;;
62509;SDS011;48558;48.242;11.654;2023-11-21T22:56:36;4.50;;;3.45;;
62509;SDS011;48558;48.242;11.654;2023-11-21T23:00:50;5.10;;;3.63;;
62509;SDS011;48558;48.242;11.654;2023-11-21T23:05:08;3.30;;;3.00;;
62509;SDS011;48558;48.242;11.654;2023-11-21T23:09:22;3.25;;;2.88;;
62509;SDS011;48558;48.242;11.654;2023-11-21T23:13:34;2.60;;;2.40;;
62509;SDS011;48558;48.242;11.654;2023-11-21T23:17:47;4.30;;;2.45;;
62509;SDS011;48558;48.242;11.654;2023-11-21T23:21:59;3.45;;;2.70;;
62509;SDS011;48558;48.242;11.654;2023-11-21T23:26:15;7.05;;;3.80;;
62509;SDS011;48558;48.242;11.654;2023-11-21T23:30:31;4.18;;;3.00;;
62509;SDS011;48558;48.242;11.654;2023-11-21T23:34:43;3.35;;;3.05;;
62509;SDS011;48558;48.242;11.654;2023-11-21T23:38:56;2.20;;;2.00;;
62509;SDS011;48558;48.242;11.654;2023-11-21T23:43:08;8.13;;;3.42;;
62509;SDS011;48558;48.242;11.654;2023-11-21T23:47:24;4.75;;;3.55;;
62509;SDS011;48558;48.242;11.654;2023-11-21T23:51:37;4.85;;;3.47;;
62509;SDS011;48558;48.242;11.654;2023-11-21T23:55:50;2.88;;;2.35;;
